createdAt,value
2019-01-02T00:01:29.078Z,100852.73
2019-01-02T00:04:19.900Z,100848.83
2019-01-02T00:07:11.187Z,100846.89
2019-01-02T00:10:04.365Z,100849.85
2019-01-02T00:12:55.090Z,100850.39
2019-01-02T00:15:49.174Z,100855.64
2019-01-02T00:18:39.913Z,100853.42
2019-01-02T00:21:30.347Z,100850.98
2019-01-02T00:24:20.673Z,100840.90
2019-01-02T00:27:12.561Z,100823.33
2019-01-02T00:30:03.753Z,100834.01
2019-01-02T00:32:54.803Z,100833.89
2019-01-02T00:35:45.469Z,100833.39
2019-01-02T00:38:35.847Z,100826.28
2019-01-02T00:41:26.946Z,100822.91
2019-01-02T00:44:17.606Z,100820.16
2019-01-02T00:47:08.321Z,100818.94
2019-01-02T00:49:58.707Z,100813.73
2019-01-02T00:52:49.817Z,100818.25
2019-01-02T00:55:40.425Z,100811.41
2019-01-02T00:58:30.700Z,100809.93
2019-01-02T01:01:21.784Z,100806.64
2019-01-02T01:04:12.795Z,100802.94
2019-01-02T01:07:03.242Z,100796.59
2019-01-02T01:09:53.959Z,100794.95
2019-01-02T01:12:45.313Z,100793.25
2019-01-02T01:15:36.043Z,100793.79
2019-01-02T01:18:27.630Z,100791.23
2019-01-02T01:21:18.608Z,100789.59
2019-01-02T01:24:09.504Z,100786.64
2019-01-02T01:26:59.949Z,100782.51
2019-01-02T01:29:52.001Z,100778.55
2019-01-02T01:32:42.672Z,100776.69
2019-01-02T01:35:33.262Z,100770.21
2019-01-02T01:38:23.645Z,100765.52
2019-01-02T01:41:14.541Z,100765.50
2019-01-02T01:44:06.405Z,100753.62
2019-01-02T01:46:56.760Z,100747.07
2019-01-02T01:49:47.648Z,100752.23
2019-01-02T01:52:38.323Z,100756.59
2019-01-02T01:55:29.346Z,100749.69
2019-01-02T01:58:20.524Z,100740.68
2019-01-02T02:01:11.593Z,100737.49
2019-01-02T02:04:02.415Z,100729.91
2019-01-02T02:06:52.633Z,100724.22
2019-01-02T02:09:43.232Z,100720.61
2019-01-02T02:12:33.810Z,100712.73
2019-01-02T02:15:24.158Z,100703.45
2019-01-02T02:18:15.086Z,100700.34
2019-01-02T02:21:05.837Z,100699.09
2019-01-02T02:23:56.572Z,100696.83
2019-01-02T02:26:46.983Z,100689.75
2019-01-02T02:29:37.660Z,100683.81
2019-01-02T02:32:28.187Z,100683.44
2019-01-02T02:35:19.966Z,100680.81
2019-01-02T02:38:11.056Z,100667.95
2019-01-02T02:41:02.105Z,100664.80
2019-01-02T02:43:53.039Z,100665.57
2019-01-02T02:46:43.631Z,100660.05
2019-01-02T02:49:34.164Z,100663.45
2019-01-02T02:52:24.855Z,100652.40
2019-01-02T02:55:18.508Z,100647.70
2019-01-02T02:58:08.830Z,100643.89
2019-01-02T03:00:59.187Z,100644.70
2019-01-02T03:03:49.890Z,100637.46
2019-01-02T03:06:40.712Z,100633.41
2019-01-02T03:09:31.387Z,100633.58
2019-01-02T03:12:21.864Z,100625.45
2019-01-02T03:15:12.247Z,100623.51
2019-01-02T03:18:02.860Z,100621.15
2019-01-02T03:20:53.861Z,100616.17
2019-01-02T03:23:44.633Z,100623.09
2019-01-02T03:26:35.486Z,100589.93
2019-01-02T03:29:26.428Z,100617.85
2019-01-02T03:32:17.066Z,100616.83
2019-01-02T03:35:08.541Z,100612.38
2019-01-02T03:37:59.279Z,100604.98
2019-01-02T03:40:49.892Z,100603.42
2019-01-02T03:43:40.118Z,100601.47
2019-01-02T03:46:30.612Z,100598.67
2019-01-02T03:49:21.384Z,100594.31
2019-01-02T03:52:11.998Z,100599.78
2019-01-02T03:55:02.354Z,100593.78
2019-01-02T03:57:53.053Z,100598.59
2019-01-02T04:00:43.885Z,100600.09
2019-01-02T04:03:34.512Z,100595.19
2019-01-02T04:06:25.398Z,100594.41
2019-01-02T04:09:16.038Z,100596.56
2019-01-02T04:12:06.666Z,100593.70
2019-01-02T04:14:56.954Z,100592.76
2019-01-02T04:17:47.644Z,100585.50
2019-01-02T04:20:38.319Z,100596.20
2019-01-02T04:23:28.718Z,100588.77
2019-01-02T04:26:18.853Z,100588.39
2019-01-02T04:29:09.526Z,100582.38
2019-01-02T04:32:00.195Z,100583.63
2019-01-02T04:34:51.423Z,100576.77
2019-01-02T04:37:41.885Z,100576.22
2019-01-02T04:40:32.181Z,100579.29
2019-01-02T04:43:23.775Z,100575.93
2019-01-02T04:46:13.951Z,100575.31
2019-01-02T04:49:04.230Z,100570.38
2019-01-02T04:51:54.512Z,100577.09
2019-01-02T04:54:45.125Z,100579.66
2019-01-02T04:57:35.528Z,100579.28
2019-01-02T05:00:26.126Z,100578.58
2019-01-02T05:03:16.824Z,100579.39
2019-01-02T05:06:07.433Z,100572.93
2019-01-02T05:08:58.119Z,100570.29
2019-01-02T05:11:48.678Z,100566.56
2019-01-02T05:14:39.187Z,100566.07
2019-01-02T05:17:29.778Z,100568.19
2019-01-02T05:20:19.986Z,100567.02
2019-01-02T05:23:10.733Z,100577.02
2019-01-02T05:26:01.435Z,100566.87
2019-01-02T05:28:51.968Z,100563.84
2019-01-02T05:31:42.588Z,100555.47
2019-01-02T05:34:34.976Z,100552.53
2019-01-02T05:37:25.398Z,100553.14
2019-01-02T05:40:23.976Z,100548.22
2019-01-02T05:43:14.382Z,100548.83
2019-01-02T05:46:05.305Z,100555.84
2019-01-02T05:48:55.664Z,100552.24
2019-01-02T05:51:46.391Z,100557.09
2019-01-02T05:54:36.925Z,100562.74
2019-01-02T05:57:27.262Z,100559.23
2019-01-02T06:00:17.794Z,100566.80
2019-01-02T06:03:08.452Z,100558.83
2019-01-02T06:05:59.084Z,100564.75
2019-01-02T06:08:49.759Z,100558.77
2019-01-02T06:11:40.441Z,100569.70
2019-01-02T06:14:32.054Z,100569.64
2019-01-02T06:17:22.610Z,100571.44
2019-01-02T06:20:15.057Z,100574.51
2019-01-02T06:23:05.456Z,100583.55
2019-01-02T06:25:56.008Z,100583.31
2019-01-02T06:28:46.548Z,100575.31
2019-01-02T06:31:36.906Z,100577.13
2019-01-02T06:34:28.433Z,100572.55
2019-01-02T06:37:18.747Z,100571.45
2019-01-02T06:40:11.339Z,100578.88
2019-01-02T06:43:01.987Z,100578.66
2019-01-02T06:45:52.629Z,100578.11
2019-01-02T06:48:43.795Z,100574.14
2019-01-02T06:51:34.289Z,100580.27
2019-01-02T06:54:24.857Z,100577.89
2019-01-02T06:57:15.334Z,100582.44
2019-01-02T07:00:08.459Z,100581.93
2019-01-02T07:02:58.973Z,100578.67
2019-01-02T07:05:49.568Z,100583.80
2019-01-02T07:08:40.014Z,100580.82
2019-01-02T07:11:30.601Z,100588.71
2019-01-02T07:14:21.261Z,100585.23
2019-01-02T07:17:14.536Z,100584.50
2019-01-02T07:20:05.876Z,100586.91
2019-01-02T07:22:56.403Z,100580.11
2019-01-02T07:25:46.862Z,100579.19
2019-01-02T07:28:37.354Z,100575.64
2019-01-02T07:31:28.017Z,100579.58
2019-01-02T07:35:05.289Z,100582.33
2019-01-02T07:38:24.725Z,100580.82
2019-01-02T07:42:11.538Z,100582.45
2019-01-02T07:45:47.705Z,100581.79
2019-01-02T07:49:34.332Z,100574.95
2019-01-02T07:53:07.529Z,100573.29
2019-01-02T07:56:33.795Z,100572.23
2019-01-02T08:00:04.466Z,100568.03
2019-01-02T08:03:17.533Z,100570.23
2019-01-02T08:07:17.429Z,100563.27
2019-01-02T08:10:43.629Z,100551.59
2019-01-02T08:14:10.344Z,100559.51
2019-01-02T08:17:38.863Z,100552.88
2019-01-02T08:20:55.310Z,100537.02
2019-01-02T08:24:18.635Z,100537.67
2019-01-02T08:27:56.693Z,100531.90
2019-01-02T08:30:58.808Z,100532.40
2019-01-02T08:34:36.001Z,100529.52
2019-01-02T08:37:45.851Z,100520.73
2019-01-02T08:41:23.687Z,100524.16
2019-01-02T08:45:07.151Z,100516.16
2019-01-02T08:48:32.522Z,100518.24
2019-01-02T08:52:04.534Z,100513.78
2019-01-02T08:55:37.633Z,100509.33
2019-01-02T08:59:09.700Z,100511.86
2019-01-02T09:02:33.525Z,100500.52
2019-01-02T09:06:23.475Z,100499.47
2019-01-02T09:09:42.971Z,100497.83
2019-01-02T09:13:20.170Z,100487.52
2019-01-02T09:16:28.939Z,100482.66
2019-01-02T09:20:09.737Z,100472.31
2019-01-02T09:23:31.852Z,100467.05
2019-01-02T09:27:15.349Z,100457.48
2019-01-02T09:30:49.529Z,100455.84
2019-01-02T09:34:02.984Z,100455.91
2019-01-02T09:37:30.755Z,100445.19
2019-01-02T09:40:45.127Z,100437.27
2019-01-02T09:43:56.784Z,100429.82
2019-01-02T09:47:27.751Z,100421.61
2019-01-02T09:51:11.510Z,100408.16
2019-01-02T09:54:45.270Z,100410.72
2019-01-02T09:58:21.533Z,100403.49
2019-01-02T10:02:01.929Z,100395.19
2019-01-02T10:05:44.119Z,100390.13
2019-01-02T10:09:12.143Z,100381.37
2019-01-02T10:12:58.577Z,100378.56
2019-01-02T10:16:33.084Z,100371.98
2019-01-02T10:20:20.645Z,100367.29
2019-01-02T10:24:00.997Z,100362.87
2019-01-02T10:27:22.639Z,100349.75
2019-01-02T10:30:56.725Z,100345.33
2019-01-02T10:34:14.853Z,100342.17
2019-01-02T10:37:15.832Z,100325.84
2019-01-02T10:40:29.139Z,100328.34
2019-01-02T10:43:35.935Z,100326.63
2019-01-02T10:46:58.608Z,100316.03
2019-01-02T10:50:14.439Z,100302.06
2019-01-02T10:53:36.186Z,100301.19
2019-01-02T10:56:56.064Z,100301.73
2019-01-02T11:00:23.729Z,100288.94
2019-01-02T11:04:10.415Z,100289.23
2019-01-02T11:07:33.292Z,100282.38
2019-01-02T11:10:48.942Z,100273.09
2019-01-02T11:14:19.136Z,100268.13
2019-01-02T11:18:09.131Z,100264.92
2019-01-02T11:21:46.496Z,100272.66
2019-01-02T11:25:31.989Z,100261.43
2019-01-02T11:28:55.857Z,100263.91
2019-01-02T11:32:44.050Z,100263.55
2019-01-02T11:36:34.501Z,100249.77
2019-01-02T11:40:17.360Z,100244.52
2019-01-02T11:43:59.325Z,100241.42
2019-01-02T11:46:49.426Z,100225.04
2019-01-02T11:49:39.735Z,100220.11
2019-01-02T11:52:30.349Z,100222.81
2019-01-02T11:55:20.866Z,100215.97
2019-01-02T11:58:11.489Z,100220.19
2019-01-02T12:01:02.179Z,100213.80
2019-01-02T12:03:52.586Z,100213.44
2019-01-02T12:06:43.312Z,100214.03
2019-01-02T12:09:33.748Z,100211.66
2019-01-02T12:12:24.395Z,100208.02
2019-01-02T12:15:15.193Z,100206.36
2019-01-02T12:18:06.071Z,100203.19
2019-01-02T12:20:56.564Z,100208.84
2019-01-02T12:23:47.230Z,100203.19
2019-01-02T12:26:37.588Z,100199.38
2019-01-02T12:29:28.048Z,100192.54
2019-01-02T12:32:18.445Z,100192.20
2019-01-02T12:35:08.872Z,100191.17
2019-01-02T12:37:59.072Z,100190.66
2019-01-02T12:40:49.870Z,100189.66
2019-01-02T12:43:43.067Z,100198.05
2019-01-02T12:46:33.444Z,100203.73
2019-01-02T12:49:23.680Z,100202.22
2019-01-02T12:52:14.231Z,100202.23
2019-01-02T12:55:05.253Z,100205.25
2019-01-02T12:57:55.750Z,100202.09
2019-01-02T13:00:50.267Z,100197.64
2019-01-02T13:04:39.629Z,100205.59
2019-01-02T13:08:20.139Z,100202.97
2019-01-02T13:11:32.489Z,100211.98
2019-01-02T13:14:49.499Z,100212.95
2019-01-02T13:18:15.645Z,100212.09
2019-01-02T13:21:47.792Z,100208.52
2019-01-02T13:25:10.412Z,100208.59
2019-01-02T13:28:23.681Z,100214.52
2019-01-02T13:32:07.796Z,100207.08
2019-01-02T13:35:19.317Z,100213.70
2019-01-02T13:38:20.288Z,100216.37
2019-01-02T13:41:36.246Z,100216.44
2019-01-02T13:44:57.704Z,100219.86
2019-01-02T13:48:38.339Z,100218.17
2019-01-02T13:51:34.889Z,100213.63
2019-01-02T13:54:27.456Z,100209.87
2019-01-02T13:57:18.096Z,100207.78
2019-01-02T14:00:09.587Z,100203.40
2019-01-02T14:03:00.090Z,100195.02
2019-01-02T14:05:51.425Z,100198.02
2019-01-02T14:08:41.703Z,100191.63
2019-01-02T14:11:32.163Z,100197.21
2019-01-02T14:14:22.648Z,100198.29
2019-01-02T14:17:13.142Z,100192.42
2019-01-02T14:20:03.582Z,100195.08
2019-01-02T14:22:53.712Z,100191.48
2019-01-02T14:25:44.757Z,100193.75
2019-01-02T14:28:35.341Z,100205.25
2019-01-02T14:31:26.894Z,100200.55
2019-01-02T14:34:17.675Z,100199.34
2019-01-02T14:37:08.009Z,100202.50
2019-01-02T14:39:58.805Z,100200.15
2019-01-02T14:42:49.163Z,100196.17
2019-01-02T14:45:40.830Z,100199.22
2019-01-02T14:48:31.179Z,100199.06
2019-01-02T14:51:21.683Z,100208.58
2019-01-02T14:54:12.486Z,100212.37
2019-01-02T14:57:03.517Z,100213.80
2019-01-02T14:59:54.134Z,100214.46
2019-01-02T15:02:44.726Z,100203.94
2019-01-02T15:05:35.236Z,100208.95
2019-01-02T15:08:25.636Z,100207.98
2019-01-02T15:11:16.251Z,100206.55
2019-01-02T15:14:07.071Z,100194.50
2019-01-02T15:16:57.842Z,100199.44
2019-01-02T15:19:48.611Z,100195.64
2019-01-02T15:22:39.276Z,100197.36
2019-01-02T15:25:29.674Z,100197.52
2019-01-02T15:28:21.459Z,100204.93
2019-01-02T15:31:12.000Z,100198.56
2019-01-02T15:34:02.571Z,100205.66
2019-01-02T15:36:53.203Z,100208.52
2019-01-02T15:39:43.633Z,100203.67
2019-01-02T15:42:33.809Z,100201.30
2019-01-02T15:45:25.302Z,100194.19
2019-01-02T15:48:15.872Z,100191.12
2019-01-02T15:51:06.804Z,100188.38
2019-01-02T15:53:57.179Z,100169.37
2019-01-02T15:56:48.287Z,100191.62
2019-01-02T15:59:38.664Z,100198.15
2019-01-02T16:02:29.088Z,100195.40
2019-01-02T16:05:19.501Z,100203.92
2019-01-02T16:08:10.244Z,100200.59
2019-01-02T16:11:00.604Z,100204.08
2019-01-02T16:13:51.088Z,100214.33
2019-01-02T16:16:42.424Z,100215.26
2019-01-02T16:19:33.135Z,100214.89
2019-01-02T16:22:23.695Z,100210.50
2019-01-02T16:25:14.027Z,100207.18
2019-01-02T16:28:04.644Z,100191.33
2019-01-02T16:30:55.383Z,100182.78
2019-01-02T16:33:45.860Z,100187.27
2019-01-02T16:36:36.342Z,100191.75
2019-01-02T16:39:27.848Z,100202.75
2019-01-02T16:42:18.502Z,100214.70
2019-01-02T16:45:09.301Z,100205.31
2019-01-02T16:47:59.657Z,100208.62
2019-01-02T16:50:50.268Z,100208.20
2019-01-02T16:53:43.435Z,100203.73
2019-01-02T16:56:34.134Z,100213.42
2019-01-02T16:59:24.815Z,100214.92
2019-01-02T17:02:15.448Z,100217.95
2019-01-02T17:05:06.192Z,100217.35
2019-01-02T17:07:56.670Z,100227.20
2019-01-02T17:10:47.458Z,100233.65
2019-01-02T17:13:37.989Z,100229.82
2019-01-02T17:16:28.748Z,100221.55
2019-01-02T17:19:19.436Z,100219.58
2019-01-02T17:22:09.984Z,100223.44
2019-01-02T17:25:00.619Z,100227.33
2019-01-02T17:27:51.202Z,100234.82
2019-01-02T17:30:41.527Z,100238.24
2019-01-02T17:33:32.214Z,100240.41
2019-01-02T17:36:22.948Z,100233.71
2019-01-02T17:39:13.338Z,100241.67
2019-01-02T17:42:03.737Z,100241.77
2019-01-02T17:44:54.410Z,100238.65
2019-01-02T17:47:45.106Z,100238.73
2019-01-02T17:50:35.950Z,100248.58
2019-01-02T17:53:27.969Z,100241.86
2019-01-02T17:56:18.673Z,100239.11
2019-01-02T17:59:09.032Z,100223.13
2019-01-02T18:02:00.025Z,100224.57
2019-01-02T18:04:52.527Z,100233.86
2019-01-02T18:07:43.819Z,100243.95
2019-01-02T18:10:34.064Z,100243.17
2019-01-02T18:13:24.313Z,100245.30
2019-01-02T18:16:14.781Z,100240.14
2019-01-02T18:19:05.585Z,100249.92
2019-01-02T18:21:56.166Z,100248.51
2019-01-02T18:24:46.331Z,100252.98
2019-01-02T18:27:37.216Z,100247.76
2019-01-02T18:30:27.693Z,100249.23
2019-01-02T18:33:18.449Z,100249.16
2019-01-02T18:36:08.981Z,100256.01
2019-01-02T18:38:59.709Z,100257.05
2019-01-02T18:41:50.401Z,100264.80
2019-01-02T18:44:40.995Z,100261.47
2019-01-02T18:47:31.638Z,100255.70
2019-01-02T18:50:22.162Z,100264.44
2019-01-02T18:53:12.802Z,100261.66
2019-01-02T18:56:03.518Z,100265.92
2019-01-02T18:58:54.367Z,100251.11
2019-01-02T19:01:45.080Z,100260.95
2019-01-02T19:04:35.779Z,100259.09
2019-01-02T19:07:26.897Z,100268.73
2019-01-02T19:10:17.594Z,100263.73
2019-01-02T19:13:08.262Z,100260.61
2019-01-02T19:15:58.829Z,100251.98
2019-01-02T19:18:49.214Z,100246.52
2019-01-02T19:21:39.437Z,100239.88
2019-01-02T19:24:30.298Z,100251.55
2019-01-02T19:27:21.136Z,100248.24
2019-01-02T19:30:11.357Z,100251.36
2019-01-02T19:33:02.037Z,100251.42
2019-01-02T19:35:52.344Z,100248.17
2019-01-02T19:38:44.780Z,100247.81
2019-01-02T19:41:35.432Z,100251.75
2019-01-02T19:44:25.905Z,100250.80
2019-01-02T19:47:16.480Z,100249.28
2019-01-02T19:50:08.232Z,100251.02
2019-01-02T19:52:58.497Z,100250.34
2019-01-02T19:55:49.137Z,100249.28
2019-01-02T19:58:39.655Z,100246.04
2019-01-02T20:01:30.353Z,100245.95
2019-01-02T20:04:20.627Z,100245.91
2019-01-02T20:07:11.013Z,100244.48
2019-01-02T20:10:01.549Z,100245.13
2019-01-02T20:12:52.104Z,100246.83
2019-01-02T20:15:42.907Z,100251.95
2019-01-02T20:18:33.841Z,100252.21
2019-01-02T20:21:24.572Z,100249.65
2019-01-02T20:24:15.497Z,100254.41
2019-01-02T20:27:05.753Z,100252.70
2019-01-02T20:29:56.277Z,100256.91
2019-01-02T20:32:46.932Z,100249.14
2019-01-02T20:35:37.313Z,100256.45
2019-01-02T20:38:27.768Z,100255.43
2019-01-02T20:41:18.540Z,100258.17
2019-01-02T20:44:08.995Z,100248.61
2019-01-02T20:46:59.642Z,100249.27
2019-01-02T20:49:50.291Z,100250.90
2019-01-02T20:52:40.663Z,100250.90
2019-01-02T20:55:31.153Z,100247.47
2019-01-02T20:58:21.942Z,100240.09
2019-01-02T21:01:12.720Z,100246.08
2019-01-02T21:04:03.235Z,100234.91
2019-01-02T21:06:53.695Z,100238.70
2019-01-02T21:09:44.484Z,100234.63
2019-01-02T21:12:35.890Z,100234.60
2019-01-02T21:15:26.340Z,100231.73
2019-01-02T21:18:16.855Z,100236.80
2019-01-02T21:21:07.483Z,100238.80
2019-01-02T21:23:58.105Z,100236.89
2019-01-02T21:26:48.881Z,100238.40
2019-01-02T21:29:39.214Z,100230.63
2019-01-02T21:32:29.811Z,100240.68
2019-01-02T21:35:20.621Z,100238.67
2019-01-02T21:38:11.526Z,100235.62
2019-01-02T21:41:02.294Z,100238.03
2019-01-02T21:43:52.425Z,100231.57
2019-01-02T21:46:42.777Z,100236.17
2019-01-02T21:49:33.698Z,100233.59
2019-01-02T21:52:24.092Z,100240.55
2019-01-02T21:55:14.813Z,100240.73
2019-01-02T21:58:05.382Z,100242.71
2019-01-02T22:00:55.983Z,100240.52
2019-01-02T22:03:46.371Z,100244.84
2019-01-02T22:06:37.074Z,100244.11
2019-01-02T22:09:27.673Z,100245.15
2019-01-02T22:12:18.309Z,100247.31
2019-01-02T22:15:10.869Z,100246.76
2019-01-02T22:18:02.417Z,100241.20
2019-01-02T22:20:55.790Z,100246.85
2019-01-02T22:23:46.547Z,100242.69
2019-01-02T22:26:36.900Z,100244.38
2019-01-02T22:29:27.575Z,100248.24
2019-01-02T22:32:18.204Z,100239.33
2019-01-02T22:35:09.041Z,100237.74
2019-01-02T22:37:59.726Z,100234.34
2019-01-02T22:40:50.184Z,100232.77
2019-01-02T22:43:41.019Z,100228.22
2019-01-02T22:46:31.620Z,100229.92
2019-01-02T22:49:22.249Z,100227.20
2019-01-02T22:52:12.603Z,100223.70
2019-01-02T22:55:03.531Z,100214.78
2019-01-02T22:57:54.406Z,100210.96
2019-01-02T23:01:02.239Z,100191.62
2019-01-02T23:03:59.224Z,100192.55
2019-01-02T23:07:07.344Z,100192.52
2019-01-02T23:10:22.749Z,100189.47
2019-01-02T23:13:32.025Z,100192.09
2019-01-02T23:16:56.649Z,100203.08
2019-01-02T23:20:18.262Z,100206.95
2019-01-02T23:23:29.893Z,100217.30
2019-01-02T23:26:38.137Z,100213.13
2019-01-02T23:29:49.756Z,100202.61
2019-01-02T23:32:58.593Z,100203.07
2019-01-02T23:36:10.693Z,100209.61
2019-01-02T23:39:26.412Z,100208.59
2019-01-02T23:42:34.737Z,100210.60
2019-01-02T23:45:56.794Z,100211.31
2019-01-02T23:49:08.946Z,100207.92
2019-01-02T23:52:21.051Z,100201.10
2019-01-02T23:55:48.826Z,100212.39
2019-01-02T23:58:58.210Z,100199.49
